Time;durP1;ratioP1;P1;durP2;ratioP2;P2;SDS_P1;SDS_P2;PMS_P1;PMS_P2;Temp;Humidity;BMP_temperature;BMP_pressure;BME280_temperature;BME280_humidity;BME280_pressure;Samples;Min_cycle;Max_cycle;Signal;HPM_P1;HPM_P2
2023/06/29 00:02:12;;;;;;;36.40;20.42;;;19.90;99.90;;;;;;4898434;29;20040;-72
2023/06/29 00:04:38;;;;;;;38.80;22.52;;;18.20;99.90;;;;;;4869496;29;20052;-73
2023/06/29 00:07:04;;;;;;;37.97;22.95;;;20.20;99.90;;;;;;4874779;29;20055;-72
2023/06/29 00:09:29;;;;;;;44.88;23.80;;;19.40;99.90;;;;;;4879371;29;20048;-72
2023/06/29 00:11:55;;;;;;;46.08;24.63;;;;;;;;;;4897182;29;20040;-73
2023/06/29 00:14:21;;;;;;;44.83;23.52;;;;;;;;;;4893276;29;20472;-73
2023/06/29 00:16:50;;;;;;;45.38;24.10;;;20.00;99.90;;;;;;4891391;29;20040;-72
2023/06/29 00:19:16;;;;;;;37.97;21.02;;;19.20;99.90;;;;;;4893706;29;20444;-72
2023/06/29 00:21:42;;;;;;;45.60;23.98;;;19.50;99.90;;;;;;4882946;29;20479;-73
2023/06/29 00:24:11;;;;;;;47.15;24.50;;;19.10;99.90;;;;;;4888843;29;20040;-73
2023/06/29 00:26:38;;;;;;;44.33;23.85;;;20.30;99.90;;;;;;4885942;29;20044;-73
2023/06/29 00:29:04;;;;;;;45.70;23.40;;;19.90;99.90;;;;;;4874565;29;20453;-72
2023/06/29 00:31:30;;;;;;;40.35;22.48;;;19.20;99.90;;;;;;4894420;29;20044;-72
2023/06/29 00:33:55;;;;;;;39.33;22.75;;;18.70;99.90;;;;;;4884774;29;20067;-73
2023/06/29 00:36:22;;;;;;;42.03;23.80;;;;;;;;;;4915107;29;20045;-72
2023/06/29 00:38:48;;;;;;;44.30;23.27;;;18.80;99.90;;;;;;4865449;29;20507;-72
2023/06/29 00:41:13;;;;;;;41.50;22.50;;;20.00;99.90;;;;;;4881480;29;20044;-72
2023/06/29 00:43:42;;;;;;;41.80;23.13;;;19.00;99.90;;;;;;4892939;29;20044;-72
2023/06/29 00:46:09;;;;;;;44.03;23.25;;;18.60;99.90;;;;;;4881724;29;20040;-72
2023/06/29 00:48:38;;;;;;;41.05;22.80;;;19.10;99.90;;;;;;4885581;29;20048;-72
2023/06/29 00:51:05;;;;;;;48.83;23.90;;;19.50;99.90;;;;;;4865891;29;20052;-72
2023/06/29 00:53:31;;;;;;;38.47;23.95;;;20.10;99.90;;;;;;4887943;29;20048;-72
2023/06/29 00:55:58;;;;;;;42.47;23.20;;;18.40;99.90;;;;;;4870503;29;20080;-72
2023/06/29 00:58:25;;;;;;;42.95;20.58;;;18.30;99.90;;;;;;4891245;29;20557;-72
2023/06/29 01:00:50;;;;;;;44.75;23.25;;;19.50;99.90;;;;;;4885139;29;20486;-72
2023/06/29 01:03:16;;;;;;;43.78;24.02;;;19.90;99.90;;;;;;4892163;29;20051;-68
2023/06/29 01:05:45;;;;;;;44.60;23.48;;;20.30;99.90;;;;;;4881381;29;20139;-68
2023/06/29 01:08:21;;;;;;;51.53;24.40;;;19.30;99.90;;;;;;4880018;29;20504;-68
2023/06/29 01:10:48;;;;;;;49.70;25.23;;;19.30;99.90;;;;;;4883876;29;20067;-68
2023/06/29 01:13:18;;;;;;;44.05;22.45;;;18.70;99.90;;;;;;4891426;29;20466;-68
2023/06/29 01:15:46;;;;;;;50.50;24.95;;;19.00;99.90;;;;;;4891602;29;20040;-68
2023/06/29 01:18:12;;;;;;;47.72;25.38;;;18.40;99.90;;;;;;4873769;29;20060;-68
2023/06/29 01:20:39;;;;;;;45.03;24.90;;;20.40;99.90;;;;;;4886237;29;20070;-68
2023/06/29 01:23:10;;;;;;;47.47;25.60;;;19.40;99.90;;;;;;4907348;29;20044;-68
2023/06/29 01:25:36;;;;;;;45.33;26.60;;;19.20;99.90;;;;;;4900457;29;20446;-68
2023/06/29 01:28:09;;;;;;;51.22;28.00;;;19.10;99.90;;;;;;4895635;29;20156;-68
2023/06/29 01:30:48;;;;;;;50.05;27.85;;;18.90;99.90;;;;;;4901425;29;20055;-68
2023/06/29 01:33:16;;;;;;;52.63;29.20;;;20.40;99.90;;;;;;4890237;29;20044;-68
2023/06/29 01:35:42;;;;;;;51.42;27.83;;;19.00;99.90;;;;;;4884799;29;20041;-68
2023/06/29 01:38:24;;;;;;;55.83;29.27;;;18.30;99.90;;;;;;4885870;29;20485;-68
2023/06/29 01:40:51;;;;;;;55.67;27.85;;;20.20;99.90;;;;;;4868892;29;20497;-68
2023/06/29 01:43:18;;;;;;;51.22;29.30;;;18.20;99.90;;;;;;4859981;29;20086;-68
2023/06/29 01:45:46;;;;;;;60.33;29.55;;;18.10;99.90;;;;;;4899951;29;20122;-68
2023/06/29 01:48:12;;;;;;;52.67;28.23;;;20.30;99.90;;;;;;4898899;29;20435;-68
2023/06/29 01:50:39;;;;;;;52.47;29.88;;;18.60;99.90;;;;;;4895820;29;20051;-68
2023/06/29 01:53:04;;;;;;;48.90;29.08;;;20.40;99.90;;;;;;4885303;29;20038;-68
2023/06/29 01:55:30;;;;;;;57.38;30.27;;;;;;;;;;4889329;29;20543;-68
2023/06/29 01:57:56;;;;;;;60.92;29.48;;;20.20;99.90;;;;;;4884979;29;20544;-68
2023/06/29 02:00:22;;;;;;;49.75;28.33;;;18.20;99.90;;;;;;4876655;29;20131;-68
2023/06/29 02:02:48;;;;;;;58.25;29.80;;;19.20;99.90;;;;;;4899109;29;20047;-68
2023/06/29 02:05:14;;;;;;;57.47;29.83;;;;;;;;;;4897080;29;20042;-68
2023/06/29 02:07:40;;;;;;;56.53;28.65;;;18.40;99.90;;;;;;4885129;29;20104;-72
2023/06/29 02:10:06;;;;;;;52.78;28.95;;;19.00;99.90;;;;;;4896610;29;20052;-72
2023/06/29 02:12:33;;;;;;;53.95;30.05;;;20.20;99.90;;;;;;4881430;29;20044;-72
2023/06/29 02:14:59;;;;;;;53.22;29.55;;;18.60;99.90;;;;;;4892172;29;20048;-72
2023/06/29 02:17:25;;;;;;;55.40;30.10;;;;;;;;;;4869323;29;20045;-72
2023/06/29 02:19:50;;;;;;;56.45;28.70;;;20.00;99.90;;;;;;4887640;29;20064;-72
2023/06/29 02:22:16;;;;;;;49.03;27.90;;;;;;;;;;4900687;29;20079;-72
2023/06/29 02:24:42;;;;;;;57.08;29.30;;;19.70;99.90;;;;;;4890714;29;20533;-72
2023/06/29 02:27:08;;;;;;;55.63;29.45;;;20.10;99.90;;;;;;4868023;29;20044;-72
2023/06/29 02:29:33;;;;;;;50.33;29.92;;;19.70;99.90;;;;;;4888966;29;20072;-72
2023/06/29 02:31:59;;;;;;;51.75;26.95;;;;;;;;;;4884401;29;20079;-73
2023/06/29 02:34:25;;;;;;;64.97;31.92;;;20.10;99.90;;;;;;4890080;29;20075;-73
2023/06/29 02:36:51;;;;;;;50.10;28.10;;;18.10;99.90;;;;;;4882111;29;20497;-72
2023/06/29 02:39:17;;;;;;;54.03;27.75;;;19.20;99.90;;;;;;4891152;29;20039;-73
2023/06/29 02:41:43;;;;;;;48.67;25.85;;;20.20;99.90;;;;;;4868740;29;20040;-73
2023/06/29 02:44:09;;;;;;;56.65;28.88;;;;;;;;;;4872277;29;20052;-72
2023/06/29 02:46:34;;;;;;;59.33;28.05;;;19.80;99.90;;;;;;4894774;29;20476;-73
2023/06/29 02:49:00;;;;;;;56.83;28.92;;;;;;;;;;4881904;29;20036;-73
2023/06/29 02:51:26;;;;;;;50.38;26.77;;;19.60;99.90;;;;;;4881753;29;20041;-73
2023/06/29 02:53:52;;;;;;;53.78;27.45;;;18.80;99.90;;;;;;4867569;29;20056;-72
2023/06/29 02:56:17;;;;;;;48.50;26.67;;;18.50;99.90;;;;;;4898790;29;20091;-68
2023/06/29 02:58:44;;;;;;;45.13;24.95;;;;;;;;;;4873249;29;20125;-69
2023/06/29 03:01:09;;;;;;;47.28;25.25;;;17.90;99.90;;;;;;4890451;29;20047;-68
2023/06/29 03:03:35;;;;;;;50.65;25.83;;;19.70;99.90;;;;;;4898576;29;20039;-68
2023/06/29 03:06:01;;;;;;;48.45;25.63;;;20.10;99.90;;;;;;4884576;29;20048;-68
2023/06/29 03:08:27;;;;;;;45.05;25.25;;;;;;;;;;4867350;29;20096;-68
2023/06/29 03:10:52;;;;;;;46.80;25.15;;;18.80;99.90;;;;;;4854537;29;20099;-69
2023/06/29 03:13:18;;;;;;;48.22;25.30;;;20.00;99.90;;;;;;4888920;29;20048;-68
2023/06/29 03:15:44;;;;;;;50.55;24.88;;;18.40;99.90;;;;;;4886905;29;20129;-68
2023/06/29 03:18:09;;;;;;;46.10;25.13;;;19.00;99.90;;;;;;4883413;29;20049;-68
2023/06/29 03:20:35;;;;;;;49.90;25.85;;;18.20;99.90;;;;;;4893759;29;20043;-68
2023/06/29 03:23:01;;;;;;;44.47;23.83;;;18.20;99.90;;;;;;4899383;29;20083;-68
2023/06/29 03:25:27;;;;;;;46.60;24.02;;;;;;;;;;4890508;29;20044;-68
2023/06/29 03:27:53;;;;;;;46.30;23.98;;;19.30;99.90;;;;;;4882967;29;20050;-68
2023/06/29 03:30:19;;;;;;;43.67;23.85;;;;;;;;;;4868262;29;20036;-68
2023/06/29 03:32:45;;;;;;;42.15;23.38;;;;;;;;;;4883281;29;20044;-68
2023/06/29 03:35:11;;;;;;;53.88;24.30;;;;;;;;;;4883346;29;20119;-68
2023/06/29 03:37:37;;;;;;;41.40;22.88;;;18.40;99.90;;;;;;4882209;29;20485;-68
2023/06/29 03:40:03;;;;;;;40.72;23.75;;;19.60;99.90;;;;;;4886662;29;20055;-69
2023/06/29 03:42:29;;;;;;;49.28;24.45;;;19.90;99.90;;;;;;4883346;29;20047;-68
2023/06/29 03:44:54;;;;;;;41.65;23.92;;;18.10;99.90;;;;;;4879024;29;20052;-68
2023/06/29 03:47:20;;;;;;;40.53;21.55;;;;;;;;;;4884194;29;20081;-68
2023/06/29 03:49:47;;;;;;;42.88;22.27;;;18.60;99.90;;;;;;4896231;29;20493;-68
2023/06/29 03:52:13;;;;;;;41.58;22.33;;;20.00;99.90;;;;;;4889645;29;20077;-68
2023/06/29 03:54:39;;;;;;;43.53;21.80;;;20.10;99.90;;;;;;4888904;29;20087;-68
2023/06/29 03:57:05;;;;;;;41.97;22.27;;;18.00;99.90;;;;;;4881830;29;20053;-68
2023/06/29 03:59:31;;;;;;;41.42;21.63;;;19.00;99.90;;;;;;4867652;29;20385;-68
2023/06/29 04:01:57;;;;;;;44.65;21.10;;;19.60;99.90;;;;;;4897434;29;20048;-68
2023/06/29 04:04:23;;;;;;;40.63;21.20;;;18.60;99.90;;;;;;4892794;29;20062;-68
2023/06/29 04:06:49;;;;;;;41.47;22.15;;;;;;;;;;4853252;29;20045;-68
2023/06/29 04:09:14;;;;;;;42.88;22.08;;;19.40;99.90;;;;;;4881919;29;20044;-68
2023/06/29 04:11:41;;;;;;;41.17;21.20;;;;;;;;;;4876050;29;20407;-71
2023/06/29 04:14:06;;;;;;;40.50;21.40;;;17.80;99.90;;;;;;4898386;29;20051;-72
2023/06/29 04:16:33;;;;;;;41.15;22.25;;;;;;;;;;4887084;29;20045;-72
2023/06/29 04:18:58;;;;;;;43.33;21.98;;;19.70;99.90;;;;;;4883565;29;20064;-72
2023/06/29 04:21:24;;;;;;;42.67;21.83;;;19.70;99.90;;;;;;4892190;29;20132;-72
2023/06/29 04:23:50;;;;;;;44.35;23.23;;;18.80;99.90;;;;;;4880830;29;20094;-72
2023/06/29 04:26:16;;;;;;;49.58;21.40;;;;;;;;;;4884085;29;20052;-72
2023/06/29 04:28:44;;;;;;;41.67;22.35;;;19.00;99.90;;;;;;4866064;29;20049;-72
2023/06/29 04:31:11;;;;;;;38.28;21.55;;;19.60;99.90;;;;;;4867214;29;20103;-72
2023/06/29 04:33:37;;;;;;;38.72;21.98;;;;;;;;;;4857327;29;20452;-72
2023/06/29 04:36:03;;;;;;;38.50;21.30;;;20.00;99.90;;;;;;4883876;29;20041;-72
2023/06/29 04:38:30;;;;;;;36.00;20.15;;;;;;;;;;4876485;29;20040;-72
2023/06/29 04:41:05;;;;;;;45.67;22.95;;;19.40;99.90;;;;;;4879705;29;20047;-72
2023/06/29 04:43:31;;;;;;;47.63;24.10;;;18.10;99.90;;;;;;4889849;29;20557;-72
2023/06/29 04:46:00;;;;;;;47.17;24.25;;;19.10;99.90;;;;;;4883202;29;20045;-72
2023/06/29 04:48:32;;;;;;;41.72;22.30;;;20.20;99.90;;;;;;4865919;29;20045;-71
2023/06/29 04:51:05;;;;;;;41.47;22.65;;;18.10;99.90;;;;;;4886162;29;20044;-72
2023/06/29 04:53:34;;;;;;;46.83;23.02;;;18.40;99.90;;;;;;4892953;29;20516;-72
2023/06/29 04:56:01;;;;;;;41.53;22.02;;;18.20;99.90;;;;;;4879332;29;20041;-73
2023/06/29 04:58:27;;;;;;;42.78;22.13;;;20.10;99.90;;;;;;4894598;29;20086;-73
2023/06/29 05:00:56;;;;;;;42.40;22.60;;;;;;;;;;4880277;29;20123;-73
2023/06/29 05:03:24;;;;;;;45.20;23.88;;;17.70;99.90;;;;;;4871224;29;20080;-73
2023/06/29 05:05:50;;;;;;;48.13;23.00;;;19.80;99.90;;;;;;4866870;29;20549;-74
2023/06/29 05:08:16;;;;;;;44.08;23.63;;;;;;;;;;4875247;29;20145;-74
2023/06/29 05:10:42;;;;;;;45.92;23.40;;;;;;;;;;4865581;29;20401;-73
2023/06/29 05:13:08;;;;;;;50.38;24.10;;;17.90;99.90;;;;;;4897896;29;20123;-73
2023/06/29 05:15:34;;;;;;;47.25;22.65;;;;;;;;;;4890321;29;20081;-73
2023/06/29 05:17:59;;;;;;;47.97;24.85;;;19.50;99.90;;;;;;4869112;29;20045;-73
2023/06/29 05:20:26;;;;;;;45.17;22.92;;;;;;;;;;4868732;29;20036;-73
2023/06/29 05:22:51;;;;;;;44.78;23.33;;;18.40;99.90;;;;;;4881242;29;20040;-73
2023/06/29 05:25:17;;;;;;;49.47;23.88;;;18.40;99.90;;;;;;4882207;29;20455;-73
2023/06/29 05:27:43;;;;;;;43.95;22.90;;;18.20;99.90;;;;;;4889953;29;20411;-68
2023/06/29 05:30:09;;;;;;;49.78;23.27;;;19.10;99.90;;;;;;4892413;29;20123;-69
2023/06/29 05:32:36;;;;;;;44.65;23.88;;;19.10;99.90;;;;;;4887037;29;20036;-68
2023/06/29 05:35:02;;;;;;;43.67;22.45;;;19.00;99.90;;;;;;4884345;29;20077;-68
2023/06/29 05:37:29;;;;;;;41.70;22.25;;;20.10;99.90;;;;;;4888588;29;20041;-69
2023/06/29 05:39:56;;;;;;;46.65;22.38;;;17.90;99.90;;;;;;4884237;29;20036;-68
2023/06/29 05:42:23;;;;;;;44.35;21.98;;;19.80;99.90;;;;;;4875912;29;20496;-68
2023/06/29 05:44:49;;;;;;;47.20;22.73;;;;;;;;;;4890128;29;20493;-69
2023/06/29 05:47:15;;;;;;;46.00;24.38;;;19.40;99.90;;;;;;4891031;29;20036;-68
2023/06/29 05:49:42;;;;;;;41.55;22.20;;;;;;;;;;4883551;29;20556;-68
2023/06/29 05:52:08;;;;;;;43.53;23.13;;;;;;;;;;4896822;29;20404;-68
2023/06/29 05:54:34;;;;;;;43.60;22.30;;;18.80;99.90;;;;;;4867993;29;20057;-69
2023/06/29 05:57:00;;;;;;;44.60;22.08;;;19.80;99.90;;;;;;4869027;29;20043;-69
2023/06/29 05:59:26;;;;;;;43.25;21.42;;;19.30;99.90;;;;;;4882570;29;20047;-70
2023/06/29 06:01:52;;;;;;;39.90;22.92;;;;;;;;;;4885930;29;20058;-67
2023/06/29 06:04:18;;;;;;;46.80;23.20;;;19.40;99.90;;;;;;4882360;29;20514;-69
2023/06/29 06:06:46;;;;;;;43.13;22.80;;;19.40;99.90;;;;;;4887249;29;20116;-69
2023/06/29 06:09:12;;;;;;;41.22;22.55;;;;;;;;;;4884761;29;20051;-69
2023/06/29 06:11:38;;;;;;;39.40;21.83;;;;;;;;;;4871669;29;20094;-69
2023/06/29 06:14:04;;;;;;;39.97;21.85;;;18.40;99.90;;;;;;4898799;29;20501;-69
2023/06/29 06:16:30;;;;;;;40.67;23.92;;;;;;;;;;4888500;29;20051;-69
2023/06/29 06:18:56;;;;;;;59.40;23.63;;;;;;;;;;4898595;29;20038;-69
2023/06/29 06:21:23;;;;;;;54.03;22.67;;;18.20;99.90;;;;;;4875163;29;20040;-69
2023/06/29 06:23:50;;;;;;;42.72;20.77;;;;;;;;;;4897294;29;20485;-69
2023/06/29 06:26:15;;;;;;;38.97;21.45;;;18.60;99.90;;;;;;4874675;29;20048;-69
2023/06/29 06:28:41;;;;;;;37.45;20.92;;;18.20;99.90;;;;;;4890211;29;20048;-69
2023/06/29 06:31:07;;;;;;;44.13;21.75;;;;;;;;;;4897500;29;20036;-69
2023/06/29 06:33:33;;;;;;;42.00;21.75;;;18.80;99.90;;;;;;4889435;29;20044;-69
2023/06/29 06:35:59;;;;;;;38.47;20.77;;;;;;;;;;4876335;29;20069;-69
2023/06/29 06:38:26;;;;;;;39.13;21.35;;;20.10;99.90;;;;;;4894012;29;20127;-69
2023/06/29 06:40:51;;;;;;;44.03;21.83;;;19.60;99.90;;;;;;4883959;29;20481;-69
2023/06/29 06:43:17;;;;;;;38.60;20.30;;;18.90;99.90;;;;;;4887046;29;20043;-68
2023/06/29 06:45:44;;;;;;;36.80;20.75;;;19.40;99.90;;;;;;4883278;29;20052;-69
2023/06/29 06:48:10;;;;;;;44.45;21.17;;;;;;;;;;4875337;29;20362;-75
2023/06/29 06:50:36;;;;;;;45.65;23.23;;;;;;;;;;4871358;29;20130;-73
2023/06/29 06:53:01;;;;;;;40.45;21.90;;;19.40;99.90;;;;;;4888676;29;20048;-68
2023/06/29 06:55:28;;;;;;;39.03;21.08;;;;;;;;;;4899436;29;20044;-73
2023/06/29 06:57:53;;;;;;;43.65;22.67;;;18.60;99.90;;;;;;4874947;29;20076;-68
2023/06/29 07:00:19;;;;;;;45.10;22.48;;;18.80;99.90;;;;;;4899213;29;20071;-68
2023/06/29 07:02:45;;;;;;;44.42;22.92;;;20.50;99.90;;;;;;4895186;29;20051;-68
2023/06/29 07:05:11;;;;;;;42.58;22.52;;;20.50;99.90;;;;;;4897859;29;20532;-68
2023/06/29 07:07:37;;;;;;;40.88;22.85;;;19.60;99.90;;;;;;4886296;29;20131;-68
2023/06/29 07:10:04;;;;;;;41.63;21.58;;;;;;;;;;4898189;29;20074;-72
2023/06/29 07:12:30;;;;;;;40.58;19.90;;;;;;;;;;4890260;29;20040;-74
2023/06/29 07:14:56;;;;;;;46.53;21.83;;;19.70;99.90;;;;;;4899557;29;20552;-74
2023/06/29 07:17:21;;;;;;;40.40;20.17;;;19.20;99.90;;;;;;4901042;29;20122;-73
2023/06/29 07:19:47;;;;;;;44.75;21.67;;;;;;;;;;4901232;29;20036;-69
2023/06/29 07:22:13;;;;;;;40.45;22.77;;;20.60;99.90;;;;;;4901265;29;20051;-69
2023/06/29 07:24:39;;;;;;;46.63;24.73;;;;;;;;;;4901531;29;20048;-69
2023/06/29 07:27:05;;;;;;;45.13;24.27;;;20.50;99.90;;;;;;4901029;29;20106;-69
2023/06/29 07:29:33;;;;;;;43.95;24.33;;;;;;;;;;4885627;29;20048;-69
2023/06/29 07:31:58;;;;;;;43.33;22.70;;;19.90;99.90;;;;;;4885748;29;20063;-69
2023/06/29 07:34:24;;;;;;;47.92;23.75;;;;;;;;;;4900910;29;20052;-69
2023/06/29 07:36:51;;;;;;;49.30;24.92;;;19.80;99.90;;;;;;4901239;29;20053;-69
2023/06/29 07:39:17;;;;;;;45.47;25.33;;;20.80;99.90;;;;;;4900928;29;20539;-72
2023/06/29 07:41:43;;;;;;;43.45;22.75;;;;;;;;;;4900752;29;20039;-72
2023/06/29 07:44:09;;;;;;;49.92;26.35;;;19.30;99.90;;;;;;4885583;29;20043;-69
2023/06/29 07:46:35;;;;;;;45.15;24.38;;;18.80;99.90;;;;;;4901096;29;20131;-75
2023/06/29 07:49:01;;;;;;;47.08;25.52;;;18.80;99.90;;;;;;4900739;29;20474;-68
2023/06/29 07:51:33;;;;;;;45.42;25.42;;;;;;;;;;4901016;29;20126;-69
2023/06/29 07:54:03;;;;;;;45.28;26.27;;;19.10;99.90;;;;;;4900400;29;20060;-69
2023/06/29 07:56:32;;;;;;;54.38;26.23;;;19.10;99.90;;;;;;4900949;29;20112;-69
2023/06/29 07:58:58;;;;;;;48.83;27.10;;;;;;;;;;4898698;29;20039;-68
2023/06/29 08:01:24;;;;;;;52.17;26.35;;;20.50;99.90;;;;;;4884829;29;20050;-68
2023/06/29 08:03:50;;;;;;;54.75;28.73;;;19.20;99.90;;;;;;4882724;29;20131;-68
2023/06/29 08:06:15;;;;;;;49.85;28.13;;;20.00;99.90;;;;;;4881687;29;20052;-69
2023/06/29 08:08:42;;;;;;;53.97;25.75;;;;;;;;;;4865940;29;20052;-68
2023/06/29 08:11:11;;;;;;;54.63;27.75;;;20.30;99.90;;;;;;4881918;29;20497;-68
2023/06/29 08:13:37;;;;;;;57.13;26.75;;;20.70;99.90;;;;;;4881022;29;20052;-68
2023/06/29 08:16:02;;;;;;;55.22;27.10;;;19.90;99.90;;;;;;4880298;29;20184;-68
2023/06/29 08:18:29;;;;;;;43.88;25.05;;;;;;;;;;4881224;29;20478;-68
2023/06/29 08:20:55;;;;;;;56.40;28.77;;;20.50;99.90;;;;;;4881761;29;20044;-68
2023/06/29 08:23:20;;;;;;;50.83;28.40;;;19.60;99.90;;;;;;4881947;29;20063;-68
2023/06/29 08:25:46;;;;;;;52.58;28.00;;;19.90;99.90;;;;;;4881575;29;20417;-68
2023/06/29 08:28:12;;;;;;;55.65;27.98;;;;;;;;;;4881000;29;20056;-69
2023/06/29 08:30:38;;;;;;;55.67;28.35;;;;;;;;;;4866177;29;20044;-68
2023/06/29 08:33:04;;;;;;;51.03;28.00;;;18.70;99.90;;;;;;4866383;29;20045;-68
2023/06/29 08:35:30;;;;;;;49.30;26.98;;;;;;;;;;4847568;29;20516;-72
2023/06/29 08:37:56;;;;;;;48.58;27.30;;;19.30;99.90;;;;;;4870382;29;20064;-69
2023/06/29 08:40:22;;;;;;;58.20;29.95;;;19.70;99.90;;;;;;4881542;29;20528;-68
2023/06/29 08:42:49;;;;;;;61.80;28.95;;;20.00;99.90;;;;;;4890413;29;20119;-68
2023/06/29 08:45:15;;;;;;;56.78;30.15;;;20.40;99.90;;;;;;4883382;29;20048;-69
2023/06/29 08:47:42;;;;;;;55.63;28.30;;;20.20;99.90;;;;;;4865676;29;20041;-70
2023/06/29 08:50:09;;;;;;;52.65;28.30;;;20.60;99.90;;;;;;4882514;29;20041;-69
2023/06/29 08:52:36;;;;;;;53.30;27.27;;;19.50;99.90;;;;;;4881144;29;20049;-69
2023/06/29 08:55:03;;;;;;;51.15;27.48;;;19.60;99.90;;;;;;4862658;29;20091;-69
2023/06/29 08:57:31;;;;;;;60.92;29.35;;;18.60;99.90;;;;;;4883518;29;20123;-70
2023/06/29 08:59:58;;;;;;;51.50;26.95;;;20.50;99.90;;;;;;4889603;29;20037;-68
2023/06/29 09:02:24;;;;;;;59.67;30.05;;;19.90;99.90;;;;;;4888121;29;20049;-68
2023/06/29 09:04:50;;;;;;;58.95;28.85;;;20.30;99.90;;;;;;4887600;29;20124;-69
2023/06/29 09:07:16;;;;;;;62.65;29.23;;;20.30;99.90;;;;;;4881419;29;20494;-69
2023/06/29 09:09:43;;;;;;;50.50;27.35;;;;;;;;;;4887741;29;20185;-69
2023/06/29 09:12:12;;;;;;;55.22;28.38;;;20.30;99.90;;;;;;4884998;29;20153;-68
2023/06/29 09:14:44;;;;;;;57.42;28.05;;;20.10;99.90;;;;;;4871893;29;20044;-69
2023/06/29 09:17:21;;;;;;;51.92;28.13;;;19.60;99.90;;;;;;4886029;29;20112;-72
2023/06/29 09:19:54;;;;;;;50.83;27.05;;;18.50;99.90;;;;;;4887250;29;20445;-73
2023/06/29 09:22:22;;;;;;;49.10;25.88;;;19.60;99.90;;;;;;4881352;29;20105;-73
2023/06/29 09:24:48;;;;;;;49.05;25.58;;;20.60;99.90;;;;;;4891152;29;20045;-72
2023/06/29 09:27:14;;;;;;;44.08;25.50;;;18.80;99.90;;;;;;4883636;29;20083;-72
2023/06/29 09:29:48;;;;;;;48.22;25.52;;;19.70;99.90;;;;;;4885299;29;20072;-72
2023/06/29 09:32:14;;;;;;;50.58;25.98;;;20.50;99.90;;;;;;4890880;29;20044;-73
2023/06/29 09:34:45;;;;;;;47.05;27.42;;;19.60;99.90;;;;;;4889138;29;20057;-73
2023/06/29 09:37:18;;;;;;;48.05;26.70;;;19.60;99.90;;;;;;4879572;29;20036;-73
2023/06/29 09:39:59;;;;;;;53.60;27.05;;;20.60;99.90;;;;;;4896423;29;20482;-73
2023/06/29 09:42:28;;;;;;;50.65;26.85;;;19.60;99.90;;;;;;4881090;29;20052;-73
2023/06/29 09:44:54;;;;;;;52.03;28.27;;;18.80;99.90;;;;;;4873928;29;20052;-73
2023/06/29 09:47:21;;;;;;;58.58;29.05;;;20.10;99.90;;;;;;4890861;29;20076;-73
2023/06/29 09:49:48;;;;;;;51.53;27.20;;;20.40;99.90;;;;;;4881924;29;20049;-73
2023/06/29 09:52:15;;;;;;;55.08;29.63;;;19.80;99.90;;;;;;4865698;29;20045;-73
2023/06/29 09:54:42;;;;;;;55.70;30.08;;;;;;;;;;4866475;29;20421;-73
2023/06/29 09:57:12;;;;;;;54.00;29.42;;;20.80;99.90;;;;;;4902063;29;20102;-73
2023/06/29 09:59:44;;;;;;;52.75;28.58;;;20.80;99.90;;;;;;4887159;29;20041;-73
2023/06/29 10:02:10;;;;;;;48.40;28.40;;;;;;;;;;4890105;29;20045;-73
2023/06/29 10:04:37;;;;;;;56.35;30.23;;;19.10;99.90;;;;;;4897531;29;20397;-73
2023/06/29 10:07:16;;;;;;;56.85;30.08;;;19.80;99.90;;;;;;4882430;29;20534;-73
2023/06/29 10:09:46;;;;;;;56.75;30.65;;;19.40;99.90;;;;;;4865279;29;20072;-73
2023/06/29 10:12:13;;;;;;;54.55;29.83;;;19.30;99.90;;;;;;4885297;29;20581;-73
2023/06/29 10:14:42;;;;;;;57.05;30.20;;;21.00;99.90;;;;;;4897207;29;20048;-73
2023/06/29 10:17:11;;;;;;;57.83;32.28;;;20.80;99.90;;;;;;4867313;29;20520;-73
2023/06/29 10:19:41;;;;;;;52.38;30.17;;;20.60;99.90;;;;;;4892931;29;20120;-73
2023/06/29 10:22:13;;;;;;;59.33;31.95;;;20.50;99.90;;;;;;4867179;29;20073;-73
2023/06/29 10:24:45;;;;;;;58.95;32.70;;;19.20;99.90;;;;;;4882543;29;20055;-73
2023/06/29 10:27:14;;;;;;;59.22;32.35;;;19.70;99.90;;;;;;4882587;29;20044;-74
2023/06/29 10:29:47;;;;;;;57.60;31.20;;;20.50;99.90;;;;;;4884921;29;20442;-73
2023/06/29 10:32:29;;;;;;;62.13;32.28;;;20.00;99.90;;;;;;4889921;29;20490;-69
2023/06/29 10:35:08;;;;;;;62.33;32.55;;;21.10;99.90;;;;;;4896446;29;20116;-69
2023/06/29 10:37:37;;;;;;;61.67;32.90;;;20.90;99.90;;;;;;4895577;29;20048;-69
2023/06/29 10:40:16;;;;;;;70.72;34.45;;;19.20;99.90;;;;;;4874677;29;20073;-68
2023/06/29 10:42:41;;;;;;;63.67;34.35;;;20.90;99.90;;;;;;4893480;29;20037;-69
2023/06/29 10:45:20;;;;;;;70.20;36.05;;;19.00;99.90;;;;;;4885844;29;20037;-69
2023/06/29 10:47:52;;;;;;;66.20;34.38;;;19.10;99.90;;;;;;4893135;29;20052;-69
2023/06/29 10:50:18;;;;;;;;;;;20.00;99.90;;;;;;4888313;29;20124;-69
2023/06/29 10:52:48;;;;;;;57.13;31.95;;;19.60;99.90;;;;;;4889926;29;20339;-68
2023/06/29 10:55:30;;;;;;;58.65;32.65;;;21.00;99.90;;;;;;4895131;29;20490;-76
2023/06/29 10:57:59;;;;;;;65.20;35.22;;;20.30;99.90;;;;;;4880846;29;20500;-69
2023/06/29 11:00:26;;;;;;;61.65;34.22;;;20.20;99.90;;;;;;4888151;29;20108;-69
2023/06/29 11:02:53;;;;;;;56.72;33.13;;;21.20;99.90;;;;;;4893762;29;20123;-68
2023/06/29 11:05:20;;;;;;;60.35;33.33;;;20.90;99.90;;;;;;4886631;29;20367;-69
2023/06/29 11:07:52;;;;;;;56.65;31.08;;;20.30;99.90;;;;;;4880327;29;20041;-69
2023/06/29 11:10:22;;;;;;;51.03;31.20;;;21.40;99.90;;;;;;4877308;29;20061;-69
2023/06/29 11:12:54;;;;;;;49.47;28.70;;;21.30;99.90;;;;;;4879859;29;20572;-69
2023/06/29 11:15:21;;;;;;;54.70;28.55;;;19.80;99.90;;;;;;4885878;29;20525;-72
2023/06/29 11:17:49;;;;;;;49.70;29.45;;;20.40;99.90;;;;;;4888875;29;20037;-73
2023/06/29 11:20:16;;;;;;;54.45;28.45;;;21.40;99.90;;;;;;4867430;29;20451;-72
2023/06/29 11:22:43;;;;;;;50.55;29.02;;;21.50;99.90;;;;;;4891454;29;20080;-73
2023/06/29 11:25:14;;;;;;;51.22;28.17;;;21.40;99.90;;;;;;4880312;29;20096;-73
2023/06/29 11:27:46;;;;;;;58.03;29.98;;;19.70;99.90;;;;;;4884216;29;20045;-72
2023/06/29 11:30:13;;;;;;;53.85;30.38;;;;;;;;;;4890659;29;20132;-73
2023/06/29 11:32:39;;;;;;;59.50;30.90;;;20.30;99.90;;;;;;4885868;29;20053;-73
2023/06/29 11:35:10;;;;;;;60.65;28.98;;;20.20;99.90;;;;;;4878737;29;20052;-73
2023/06/29 11:37:38;;;;;;;52.28;29.58;;;20.20;99.90;;;;;;4889287;29;20040;-72
2023/06/29 11:40:07;;;;;;;49.35;27.55;;;21.10;99.90;;;;;;4868963;29;20044;-73
2023/06/29 11:42:35;;;;;;;47.35;27.50;;;22.30;99.90;;;;;;4874462;29;20045;-73
2023/06/29 11:45:08;;;;;;;50.17;30.27;;;21.60;99.90;;;;;;4868986;29;20075;-73
2023/06/29 11:47:37;;;;;;;45.95;28.55;;;21.70;99.90;;;;;;4871075;29;20405;-73
2023/06/29 11:50:07;;;;;;;52.78;29.17;;;21.70;99.90;;;;;;4863302;29;20528;-73
2023/06/29 11:52:34;;;;;;;49.55;29.65;;;22.40;99.90;;;;;;4869085;29;20409;-73
2023/06/29 11:55:02;;;;;;;56.55;30.17;;;21.00;99.90;;;;;;4863318;29;20053;-73
2023/06/29 11:57:35;;;;;;;51.60;30.15;;;21.80;99.90;;;;;;4884970;29;20084;-73
2023/06/29 12:00:02;;;;;;;50.30;29.42;;;21.20;99.90;;;;;;4893471;29;20494;-73
2023/06/29 12:02:28;;;;;;;53.78;31.02;;;22.70;99.90;;;;;;4888899;29;20124;-70
2023/06/29 12:04:58;;;;;;;59.65;35.15;;;22.10;99.90;;;;;;4883073;29;20471;-69
2023/06/29 12:07:44;;;;;;;63.95;34.92;;;22.10;99.90;;;;;;4889687;29;20045;-69
2023/06/29 12:10:28;;;;;;;54.55;30.90;;;21.10;99.90;;;;;;4877596;29;20127;-69
2023/06/29 12:12:58;;;;;;;54.65;30.20;;;23.00;99.90;;;;;;4881567;29;20093;-69
2023/06/29 12:15:25;;;;;;;54.35;29.85;;;22.50;99.90;;;;;;4883121;29;20041;-69
2023/06/29 12:17:53;;;;;;;50.58;27.88;;;22.50;99.90;;;;;;4884125;29;20565;-69
2023/06/29 12:20:22;;;;;;;50.67;28.27;;;22.90;99.90;;;;;;4895519;29;20036;-69
2023/06/29 12:22:50;;;;;;;55.33;28.52;;;22.50;99.90;;;;;;4891616;29;20049;-69
2023/06/29 12:25:18;;;;;;;53.10;27.63;;;23.00;99.90;;;;;;4893809;29;20409;-69
2023/06/29 12:27:45;;;;;;;46.33;26.65;;;22.00;99.90;;;;;;4891387;29;20044;-69
2023/06/29 12:30:14;;;;;;;56.83;28.30;;;22.50;99.90;;;;;;4880015;29;20076;-69
2023/06/29 12:32:50;;;;;;;55.58;28.63;;;21.80;99.90;;;;;;4879341;29;20414;-75
2023/06/29 12:35:18;;;;;;;55.47;28.73;;;21.30;99.90;;;;;;4869790;29;20045;-69
2023/06/29 12:37:44;;;;;;;55.38;27.95;;;21.40;99.90;;;;;;4890090;29;20045;-69
2023/06/29 12:40:10;;;;;;;50.85;27.05;;;23.10;99.90;;;;;;4865513;29;20041;-69
2023/06/29 12:42:37;;;;;;;61.30;30.67;;;21.50;99.90;;;;;;4882089;29;20045;-69
2023/06/29 12:45:06;;;;;;;68.35;33.17;;;21.10;99.90;;;;;;4877131;29;20089;-69
2023/06/29 12:47:35;;;;;;;65.25;30.92;;;21.70;99.90;;;;;;4862252;29;20072;-69